createdAt,value
2022-12-22T00:01:30.936Z,2.64
2022-12-22T00:04:17.471Z,2.61
2022-12-22T00:07:03.717Z,2.60
2022-12-22T00:09:50.716Z,2.65
2022-12-22T00:12:38.180Z,2.71
2022-12-22T00:15:25.664Z,2.69
2022-12-22T00:18:11.537Z,2.75
2022-12-22T00:20:57.719Z,2.79
2022-12-22T00:23:43.653Z,2.78
2022-12-22T00:26:30.012Z,2.84
2022-12-22T00:29:16.085Z,3.07
2022-12-22T00:32:02.843Z,2.76
2022-12-22T00:34:56.649Z,2.64
2022-12-22T00:37:51.533Z,2.71
2022-12-22T00:40:40.662Z,3.08
2022-12-22T00:43:26.571Z,2.87
2022-12-22T00:46:13.194Z,2.85
2022-12-22T00:49:01.941Z,2.85
2022-12-22T00:51:49.403Z,3.01
2022-12-22T00:54:37.075Z,2.91
2022-12-22T00:57:23.440Z,2.92
2022-12-22T01:00:17.428Z,2.94
2022-12-22T01:03:03.679Z,2.95
2022-12-22T01:05:50.352Z,2.99
2022-12-22T01:08:36.748Z,3.08
2022-12-22T01:11:23.036Z,3.76
2022-12-22T01:14:09.015Z,3.20
2022-12-22T01:16:54.901Z,3.18
2022-12-22T01:19:41.144Z,3.14
2022-12-22T01:22:31.207Z,3.14
2022-12-22T01:25:17.053Z,3.20
2022-12-22T01:28:03.417Z,3.21
2022-12-22T01:30:49.770Z,3.23
2022-12-22T01:33:35.574Z,2.99
2022-12-22T01:36:21.954Z,2.87
2022-12-22T01:39:07.792Z,2.94
2022-12-22T01:41:54.087Z,2.98
2022-12-22T01:44:39.790Z,3.01
2022-12-22T01:47:47.665Z,3.13
2022-12-22T01:50:37.655Z,3.17
2022-12-22T01:53:27.681Z,3.30
2022-12-22T01:56:15.087Z,3.39
2022-12-22T01:59:04.926Z,3.41
2022-12-22T02:01:51.734Z,3.47
2022-12-22T02:04:41.622Z,3.53
2022-12-22T02:07:55.211Z,3.36
2022-12-22T02:11:06.082Z,3.44
2022-12-22T02:13:54.882Z,3.51
2022-12-22T02:17:05.602Z,3.42
2022-12-22T02:20:10.872Z,3.33
2022-12-22T02:23:29.028Z,3.49
2022-12-22T02:26:34.115Z,3.43
2022-12-22T02:29:23.153Z,3.55
2022-12-22T02:32:09.933Z,3.58
2022-12-22T02:34:56.074Z,3.50
2022-12-22T02:38:02.644Z,3.39
2022-12-22T02:41:34.394Z,3.53
2022-12-22T02:44:51.182Z,3.55
2022-12-22T02:47:43.241Z,3.71
2022-12-22T02:50:44.358Z,3.69
2022-12-22T02:53:33.189Z,3.67
2022-12-22T02:56:23.076Z,3.68
2022-12-22T02:59:09.385Z,3.40
2022-12-22T03:01:57.243Z,3.51
2022-12-22T03:04:43.118Z,3.64
2022-12-22T03:07:29.473Z,3.49
2022-12-22T03:10:16.591Z,3.42
2022-12-22T03:13:02.994Z,3.43
2022-12-22T03:15:48.878Z,3.28
2022-12-22T03:18:34.876Z,3.38
2022-12-22T03:21:20.940Z,3.42
2022-12-22T03:24:06.882Z,3.30
2022-12-22T03:26:34.491Z,3.28
2022-12-22T03:29:01.989Z,3.36
2022-12-22T03:31:29.594Z,3.22
2022-12-22T03:33:57.140Z,3.05
2022-12-22T03:36:24.919Z,2.95
2022-12-22T03:38:52.517Z,2.93
2022-12-22T03:41:38.661Z,2.93
2022-12-22T03:44:24.599Z,3.00
2022-12-22T03:46:52.252Z,2.95
2022-12-22T03:49:20.080Z,2.98
2022-12-22T03:51:49.576Z,2.95
2022-12-22T03:54:27.007Z,3.01
2022-12-22T03:56:54.678Z,2.77
2022-12-22T03:59:22.352Z,2.60
2022-12-22T04:01:53.287Z,2.61
2022-12-22T04:04:23.903Z,2.75
2022-12-22T04:06:52.810Z,2.86
2022-12-22T04:09:22.243Z,2.89
2022-12-22T04:12:08.078Z,2.94
2022-12-22T04:14:36.066Z,2.87
2022-12-22T04:17:04.948Z,2.91
2022-12-22T04:19:33.360Z,2.86
2022-12-22T04:22:01.669Z,2.89
2022-12-22T04:24:29.208Z,2.76
2022-12-22T04:26:56.826Z,2.84
2022-12-22T04:29:24.520Z,2.82
2022-12-22T04:31:52.104Z,2.86
2022-12-22T04:34:19.642Z,2.97
2022-12-22T04:36:47.180Z,2.87
2022-12-22T04:39:14.744Z,2.90
2022-12-22T04:41:42.324Z,2.69
2022-12-22T04:44:09.842Z,2.84
2022-12-22T04:46:37.386Z,2.90
2022-12-22T04:49:05.051Z,2.98
2022-12-22T04:51:32.557Z,3.00
2022-12-22T04:54:00.220Z,3.01
2022-12-22T04:56:27.748Z,2.95
2022-12-22T04:58:55.293Z,2.89
2022-12-22T05:01:24.458Z,2.90
2022-12-22T05:03:52.133Z,2.90
2022-12-22T05:06:19.960Z,2.87
2022-12-22T05:08:47.452Z,2.85
2022-12-22T05:11:15.088Z,2.70
2022-12-22T05:13:42.708Z,2.81
2022-12-22T05:16:12.874Z,2.80
2022-12-22T05:18:42.318Z,2.87
2022-12-22T05:21:15.709Z,2.84
2022-12-22T05:23:44.051Z,2.80
2022-12-22T05:26:12.413Z,2.83
2022-12-22T05:28:41.038Z,2.80
2022-12-22T05:31:16.604Z,2.84
2022-12-22T05:33:44.667Z,2.88
2022-12-22T05:36:12.271Z,2.93
2022-12-22T05:38:40.377Z,2.94
2022-12-22T05:41:08.528Z,3.03
2022-12-22T05:43:36.569Z,3.03
2022-12-22T05:46:09.983Z,3.04
2022-12-22T05:48:39.870Z,2.94
2022-12-22T05:51:09.961Z,2.99
2022-12-22T05:53:38.635Z,2.93
2022-12-22T05:56:07.420Z,2.85
2022-12-22T05:58:37.214Z,2.82
2022-12-22T06:01:05.467Z,2.74
2022-12-22T06:03:33.107Z,2.75
2022-12-22T06:06:00.813Z,2.69
2022-12-22T06:08:28.649Z,2.66
2022-12-22T06:10:58.404Z,2.61
2022-12-22T06:13:26.477Z,2.60
2022-12-22T06:15:54.179Z,2.64
2022-12-22T06:18:22.895Z,2.64
2022-12-22T06:20:53.584Z,2.64
2022-12-22T06:23:22.580Z,2.61
2022-12-22T06:25:55.185Z,2.58
2022-12-22T06:28:22.927Z,2.63
2022-12-22T06:30:50.529Z,2.65
2022-12-22T06:33:18.120Z,2.62
2022-12-22T06:35:50.900Z,2.61
2022-12-22T06:38:24.912Z,2.62
2022-12-22T06:40:52.448Z,2.59
2022-12-22T06:43:19.886Z,2.58
2022-12-22T06:45:47.442Z,2.52
2022-12-22T06:48:15.102Z,2.45
2022-12-22T06:50:42.852Z,2.36
2022-12-22T06:53:11.260Z,2.40
2022-12-22T06:55:39.035Z,2.43
2022-12-22T06:58:07.031Z,2.44
2022-12-22T07:00:34.939Z,2.46
2022-12-22T07:03:02.852Z,2.50
2022-12-22T07:05:32.043Z,2.49
2022-12-22T07:08:05.894Z,2.53
2022-12-22T07:10:54.916Z,2.63
2022-12-22T07:13:24.215Z,2.63
2022-12-22T07:16:00.255Z,2.66
2022-12-22T07:18:34.279Z,2.76
2022-12-22T07:21:03.400Z,2.77
2022-12-22T07:23:31.354Z,2.77
2022-12-22T07:25:59.125Z,2.81
2022-12-22T07:28:26.929Z,2.90
2022-12-22T07:30:55.150Z,2.92
2022-12-22T07:33:23.463Z,3.03
2022-12-22T07:36:05.351Z,3.03
2022-12-22T07:38:39.336Z,3.13
2022-12-22T07:41:28.565Z,3.07
2022-12-22T07:43:58.834Z,3.07
2022-12-22T07:46:28.619Z,3.18
2022-12-22T07:49:15.374Z,3.19
2022-12-22T07:51:43.998Z,3.27
2022-12-22T07:54:14.344Z,3.50
2022-12-22T07:56:42.681Z,3.50
2022-12-22T07:59:10.783Z,3.67
2022-12-22T08:01:39.977Z,3.74
2022-12-22T08:04:11.973Z,3.87
2022-12-22T08:06:39.963Z,4.02
2022-12-22T08:09:09.524Z,4.04
2022-12-22T08:11:36.986Z,4.31
2022-12-22T08:14:04.775Z,4.46
2022-12-22T08:16:32.382Z,4.65
2022-12-22T08:19:00.136Z,4.73
2022-12-22T08:21:27.691Z,4.49
2022-12-22T08:23:55.457Z,4.51
2022-12-22T08:26:36.588Z,4.34
2022-12-22T08:29:16.393Z,4.14
2022-12-22T08:31:44.697Z,4.16
2022-12-22T08:34:16.409Z,4.06
2022-12-22T08:36:50.916Z,3.94
2022-12-22T08:39:20.981Z,3.91
2022-12-22T08:41:51.645Z,3.82
2022-12-22T08:44:30.070Z,3.87
2022-12-22T08:46:59.090Z,3.91
2022-12-22T08:49:26.928Z,3.96
2022-12-22T08:51:54.776Z,4.09
2022-12-22T08:54:23.057Z,4.13
2022-12-22T08:56:51.094Z,4.07
2022-12-22T08:59:19.185Z,4.11
2022-12-22T09:01:50.726Z,4.17
2022-12-22T09:04:21.135Z,4.22
2022-12-22T09:06:51.383Z,4.16
2022-12-22T09:09:19.562Z,4.28
2022-12-22T09:11:47.357Z,4.21
2022-12-22T09:14:15.400Z,4.37
2022-12-22T09:16:42.995Z,4.45
2022-12-22T09:19:10.737Z,4.36
2022-12-22T09:21:38.481Z,4.39
2022-12-22T09:24:07.613Z,4.42
2022-12-22T09:26:35.325Z,4.40
2022-12-22T09:29:04.266Z,4.39
2022-12-22T09:31:32.888Z,4.40
2022-12-22T09:34:01.039Z,4.39
2022-12-22T09:36:31.738Z,4.31
2022-12-22T09:39:04.554Z,4.34
2022-12-22T09:41:50.850Z,4.26
2022-12-22T09:44:30.292Z,4.02
2022-12-22T09:47:01.767Z,4.14
2022-12-22T09:49:30.133Z,4.07
2022-12-22T09:52:02.580Z,3.95
2022-12-22T09:54:30.842Z,3.94
2022-12-22T09:56:58.677Z,3.90
2022-12-22T09:59:28.449Z,4.09
2022-12-22T10:01:59.820Z,4.30
2022-12-22T10:04:36.536Z,4.54
2022-12-22T10:07:03.911Z,4.97
2022-12-22T10:09:50.674Z,5.33
2022-12-22T10:12:25.344Z,6.38
2022-12-22T10:14:54.456Z,7.24
2022-12-22T10:17:28.081Z,7.48
2022-12-22T10:20:21.709Z,7.27
2022-12-22T10:22:55.689Z,7.03
2022-12-22T10:26:00.397Z,6.73
2022-12-22T10:28:31.930Z,6.66
2022-12-22T10:31:31.275Z,6.59
2022-12-22T10:34:18.349Z,6.67
2022-12-22T10:36:50.773Z,6.69
2022-12-22T10:39:26.077Z,6.37
2022-12-22T10:41:56.412Z,6.60
2022-12-22T10:44:28.279Z,7.33
2022-12-22T10:47:24.180Z,7.36
2022-12-22T10:52:32.253Z,8.92
2022-12-22T10:55:20.445Z,11.74
2022-12-22T10:57:49.544Z,13.01
2022-12-22T11:00:27.158Z,14.13
2022-12-22T11:02:58.013Z,14.88
2022-12-22T11:05:26.345Z,13.67
2022-12-22T11:07:55.238Z,14.79
2022-12-22T11:10:41.530Z,13.44
2022-12-22T11:13:36.961Z,11.46
2022-12-22T11:16:17.727Z,9.80
2022-12-22T11:19:03.525Z,9.35
2022-12-22T11:22:18.758Z,9.37
2022-12-22T11:24:48.978Z,8.49
2022-12-22T11:27:45.779Z,7.36
2022-12-22T11:30:20.917Z,6.93
2022-12-22T11:33:07.367Z,6.78
2022-12-22T11:35:56.644Z,6.76
2022-12-22T11:38:24.134Z,6.69
2022-12-22T11:41:04.571Z,6.55
2022-12-22T11:43:46.949Z,6.45
2022-12-22T11:46:25.607Z,6.35
2022-12-22T11:48:55.875Z,6.29
2022-12-22T11:52:01.090Z,6.21
2022-12-22T11:54:40.195Z,6.05
2022-12-22T11:57:13.826Z,6.10
2022-12-22T12:00:02.729Z,6.16
2022-12-22T12:03:16.796Z,6.26
2022-12-22T12:05:59.422Z,5.96
2022-12-22T12:08:42.676Z,5.88
2022-12-22T12:11:25.537Z,5.93
2022-12-22T12:14:05.510Z,5.88
2022-12-22T12:16:39.275Z,5.75
2022-12-22T12:19:24.763Z,5.72
2022-12-22T12:22:38.584Z,5.68
2022-12-22T12:25:40.067Z,5.54
2022-12-22T12:28:26.395Z,5.47
2022-12-22T12:30:58.027Z,5.27
2022-12-22T12:33:46.815Z,5.58
2022-12-22T12:36:16.970Z,5.71
2022-12-22T12:39:08.916Z,5.85
2022-12-22T12:41:48.005Z,5.84
2022-12-22T12:44:19.082Z,5.97
2022-12-22T12:46:57.201Z,6.00
2022-12-22T12:49:36.744Z,5.96
2022-12-22T12:52:14.116Z,5.90
2022-12-22T12:54:43.698Z,5.87
2022-12-22T12:57:46.393Z,5.82
2022-12-22T13:00:44.990Z,5.72
2022-12-22T13:03:52.955Z,5.75
2022-12-22T13:06:49.358Z,5.90
2022-12-22T13:09:49.754Z,5.79
2022-12-22T13:12:49.111Z,6.13
2022-12-22T13:15:37.694Z,6.41
2022-12-22T13:18:34.118Z,6.99
2022-12-22T13:24:28.987Z,6.94
2022-12-22T13:27:03.621Z,7.05
2022-12-22T13:29:41.870Z,6.83
2022-12-22T13:32:33.353Z,5.77
2022-12-22T13:37:59.681Z,5.48
2022-12-22T13:40:40.812Z,5.25
2022-12-22T13:43:17.983Z,5.09
2022-12-22T13:45:48.517Z,5.15
2022-12-22T13:48:24.692Z,5.24
2022-12-22T13:51:01.555Z,5.16
2022-12-22T13:56:46.853Z,4.96
2022-12-22T13:59:27.757Z,4.80
2022-12-22T14:02:16.199Z,4.55
2022-12-22T14:05:10.870Z,4.55
2022-12-22T14:07:38.561Z,4.53
2022-12-22T14:10:07.486Z,4.55
2022-12-22T14:12:41.980Z,4.37
2022-12-22T14:15:18.010Z,4.49
2022-12-22T14:17:52.292Z,4.40
2022-12-22T14:20:29.296Z,4.16
2022-12-22T14:23:05.338Z,4.22
2022-12-22T14:25:38.011Z,4.14
2022-12-22T14:28:12.041Z,4.05
2022-12-22T14:30:45.074Z,4.09
2022-12-22T14:33:27.954Z,3.90
2022-12-22T14:36:04.661Z,3.97
2022-12-22T14:38:40.848Z,4.16
2022-12-22T14:41:37.699Z,4.29
2022-12-22T14:44:05.508Z,4.33
2022-12-22T14:46:38.545Z,4.36
2022-12-22T14:49:16.697Z,4.42
2022-12-22T14:51:59.079Z,4.48
2022-12-22T14:54:29.100Z,4.52
2022-12-22T14:57:08.497Z,4.47
2022-12-22T14:59:59.237Z,4.56
2022-12-22T15:02:39.009Z,4.43
2022-12-22T15:05:28.466Z,4.48
2022-12-22T15:08:07.229Z,4.38
2022-12-22T15:10:43.337Z,4.31
2022-12-22T15:13:13.401Z,4.26
2022-12-22T15:15:40.898Z,4.30
2022-12-22T15:18:14.257Z,4.32
2022-12-22T15:20:42.629Z,4.27
2022-12-22T15:23:17.076Z,4.27
2022-12-22T15:25:45.682Z,4.27
2022-12-22T15:28:13.403Z,4.59
2022-12-22T15:30:41.537Z,4.32
2022-12-22T15:33:14.979Z,4.15
2022-12-22T15:35:44.147Z,4.15
2022-12-22T15:38:20.672Z,4.12
2022-12-22T15:40:49.176Z,4.04
2022-12-22T15:43:53.548Z,4.01
2022-12-22T15:46:06.208Z,3.91
2022-12-22T15:48:36.288Z,3.94
2022-12-22T15:51:07.664Z,3.95
2022-12-22T15:53:36.877Z,4.03
2022-12-22T15:56:04.927Z,3.93
2022-12-22T15:58:36.180Z,3.98
2022-12-22T16:01:04.151Z,3.97
2022-12-22T16:03:32.028Z,4.00
2022-12-22T16:06:00.744Z,3.87
2022-12-22T16:08:37.796Z,3.95
2022-12-22T16:11:07.491Z,3.96
2022-12-22T16:13:37.007Z,3.91
2022-12-22T16:16:05.154Z,3.93
2022-12-22T16:18:32.943Z,3.87
2022-12-22T16:21:07.953Z,3.83
2022-12-22T16:23:36.809Z,3.73
2022-12-22T16:26:05.182Z,3.62
2022-12-22T16:28:33.340Z,3.68
2022-12-22T16:31:01.419Z,3.64
2022-12-22T16:33:29.180Z,3.73
2022-12-22T16:35:56.685Z,3.78
2022-12-22T16:38:24.229Z,3.77
2022-12-22T16:40:53.437Z,3.82
2022-12-22T16:46:15.068Z,3.89
2022-12-22T16:48:49.747Z,3.86
2022-12-22T16:51:38.805Z,3.95
2022-12-22T16:54:06.227Z,3.91
2022-12-22T16:56:34.916Z,3.89
2022-12-22T16:59:04.652Z,3.93
2022-12-22T17:01:40.172Z,3.96
2022-12-22T17:04:12.161Z,4.04
2022-12-22T17:06:40.205Z,3.97
2022-12-22T17:09:15.970Z,4.03
2022-12-22T17:11:46.189Z,4.08
2022-12-22T17:14:37.720Z,4.09
2022-12-22T17:17:05.287Z,4.11
2022-12-22T17:19:32.831Z,4.00
2022-12-22T17:22:00.953Z,4.01
2022-12-22T17:24:29.040Z,4.06
2022-12-22T17:27:01.087Z,4.06
2022-12-22T17:29:30.024Z,4.04
2022-12-22T17:31:57.476Z,3.99
2022-12-22T17:34:25.038Z,4.02
2022-12-22T17:36:52.640Z,4.05
2022-12-22T17:39:21.999Z,4.03
2022-12-22T17:41:56.433Z,4.09
2022-12-22T17:44:26.743Z,4.10
2022-12-22T17:46:54.497Z,3.99
2022-12-22T17:49:22.781Z,4.06
2022-12-22T17:51:50.629Z,3.99
2022-12-22T17:54:23.775Z,4.02
2022-12-22T17:56:54.001Z,3.90
2022-12-22T17:59:21.479Z,3.86
2022-12-22T18:01:49.225Z,3.91
2022-12-22T18:04:16.969Z,3.97
2022-12-22T18:06:44.625Z,4.05
2022-12-22T18:09:20.902Z,4.11
2022-12-22T18:11:50.163Z,4.14
2022-12-22T18:14:19.460Z,4.16
2022-12-22T18:16:47.055Z,4.22
2022-12-22T18:19:14.668Z,4.54
2022-12-22T18:21:43.926Z,4.27
2022-12-22T18:24:19.241Z,4.26
2022-12-22T18:26:47.532Z,4.24
2022-12-22T18:29:16.114Z,4.27
2022-12-22T18:31:44.284Z,4.19
2022-12-22T18:34:12.540Z,4.27
2022-12-22T18:36:42.601Z,4.33
2022-12-22T18:39:18.991Z,4.37
2022-12-22T18:41:46.929Z,4.35
2022-12-22T18:44:18.654Z,4.47
2022-12-22T18:46:46.861Z,4.39
2022-12-22T18:49:15.490Z,4.45
2022-12-22T18:51:44.730Z,4.34
2022-12-22T18:54:27.270Z,4.29
2022-12-22T18:56:55.739Z,4.17
2022-12-22T18:59:26.008Z,4.18
2022-12-22T19:02:01.991Z,4.09
2022-12-22T19:04:29.898Z,4.33
2022-12-22T19:06:57.778Z,4.27
2022-12-22T19:09:26.996Z,4.32
2022-12-22T19:11:54.550Z,4.36
2022-12-22T19:14:22.643Z,4.34
2022-12-22T19:16:50.215Z,4.34
2022-12-22T19:19:19.332Z,4.24
2022-12-22T19:21:48.704Z,4.27
2022-12-22T19:24:16.331Z,4.25
2022-12-22T19:26:43.868Z,4.77
2022-12-22T19:29:14.162Z,4.47
2022-12-22T19:31:43.601Z,4.47
2022-12-22T19:34:17.008Z,4.43
2022-12-22T19:36:44.576Z,4.32
2022-12-22T19:39:12.162Z,4.20
2022-12-22T19:41:50.045Z,4.33
2022-12-22T19:44:19.547Z,4.30
2022-12-22T19:46:48.526Z,4.29
2022-12-22T19:49:22.016Z,4.36
2022-12-22T19:51:49.998Z,4.29
2022-12-22T19:54:17.661Z,4.36
2022-12-22T19:56:52.582Z,4.39
2022-12-22T19:59:38.739Z,4.34
2022-12-22T20:02:30.243Z,4.41
2022-12-22T20:04:58.870Z,4.42
2022-12-22T20:07:29.595Z,4.46
2022-12-22T20:09:58.966Z,4.61
2022-12-22T20:12:31.740Z,4.67
2022-12-22T20:15:00.675Z,4.52
2022-12-22T20:17:28.263Z,4.58
2022-12-22T20:19:56.592Z,4.58
2022-12-22T20:22:24.319Z,4.60
2022-12-22T20:24:54.472Z,4.63
2022-12-22T20:27:24.930Z,4.75
2022-12-22T20:29:58.201Z,4.86
2022-12-22T20:32:28.247Z,4.71
2022-12-22T20:34:56.238Z,4.88
2022-12-22T20:37:29.039Z,4.92
2022-12-22T20:40:01.278Z,4.99
2022-12-22T20:42:28.997Z,4.95
2022-12-22T20:45:03.734Z,5.06
2022-12-22T20:47:35.791Z,5.11
2022-12-22T20:50:25.930Z,5.11
2022-12-22T20:52:54.459Z,5.10
2022-12-22T20:55:25.484Z,5.17
2022-12-22T20:57:53.668Z,5.09
2022-12-22T21:00:26.263Z,5.06
2022-12-22T21:02:56.909Z,5.08
2022-12-22T21:05:24.552Z,5.15
2022-12-22T21:07:52.126Z,5.22
2022-12-22T21:10:22.452Z,5.31
2022-12-22T21:12:50.474Z,5.25
2022-12-22T21:15:24.766Z,5.34
2022-12-22T21:17:58.213Z,5.37
2022-12-22T21:20:29.069Z,5.31
2022-12-22T21:22:56.613Z,5.69
2022-12-22T21:25:25.651Z,5.50
2022-12-22T21:27:53.656Z,5.37
2022-12-22T21:30:25.273Z,5.33
2022-12-22T21:32:53.596Z,5.21
2022-12-22T21:35:24.468Z,5.18
2022-12-22T21:37:52.846Z,5.10
2022-12-22T21:40:27.690Z,5.07
2022-12-22T21:42:56.771Z,5.11
2022-12-22T21:45:30.601Z,5.10
2022-12-22T21:48:02.196Z,5.26
2022-12-22T21:50:32.293Z,5.26
2022-12-22T21:53:00.572Z,5.28
2022-12-22T21:55:31.027Z,5.23
2022-12-22T21:57:59.290Z,5.20
2022-12-22T22:00:28.950Z,5.16
2022-12-22T22:02:57.174Z,5.13
2022-12-22T22:05:33.710Z,5.28
2022-12-22T22:08:03.111Z,5.26
2022-12-22T22:10:39.038Z,5.27
2022-12-22T22:13:07.417Z,5.35
2022-12-22T22:15:35.676Z,5.43
2022-12-22T22:18:07.312Z,5.41
2022-12-22T22:20:35.687Z,5.43
2022-12-22T22:23:03.288Z,5.48
2022-12-22T22:25:30.856Z,5.46
2022-12-22T22:28:01.557Z,5.46
2022-12-22T22:30:29.182Z,5.48
2022-12-22T22:32:57.012Z,5.53
2022-12-22T22:35:27.996Z,5.59
2022-12-22T22:37:56.005Z,5.82
2022-12-22T22:40:25.250Z,5.70
2022-12-22T22:42:53.106Z,5.53
2022-12-22T22:45:23.271Z,5.44
2022-12-22T22:47:52.467Z,5.50
2022-12-22T22:50:21.306Z,5.57
2022-12-22T22:52:49.203Z,5.67
2022-12-22T22:55:16.709Z,5.70
2022-12-22T22:57:44.243Z,5.53
2022-12-22T23:00:16.330Z,5.53
2022-12-22T23:02:45.082Z,5.53
2022-12-22T23:05:20.465Z,5.61
2022-12-22T23:07:50.170Z,5.64
2022-12-22T23:10:20.060Z,5.68
2022-12-22T23:12:47.692Z,5.65
2022-12-22T23:15:15.238Z,5.68
2022-12-22T23:17:42.809Z,6.15
2022-12-22T23:20:10.573Z,5.70
2022-12-22T23:22:39.346Z,5.73
2022-12-22T23:25:07.133Z,5.54
2022-12-22T23:27:34.797Z,5.49
2022-12-22T23:30:02.279Z,5.60
2022-12-22T23:32:31.039Z,5.66
2022-12-22T23:34:58.531Z,5.71
2022-12-22T23:37:26.430Z,5.64
2022-12-22T23:39:54.603Z,5.77
2022-12-22T23:42:23.625Z,5.79
2022-12-22T23:44:51.254Z,5.74
2022-12-22T23:47:18.695Z,5.84
2022-12-22T23:49:47.459Z,5.71
2022-12-22T23:52:14.932Z,5.91
2022-12-22T23:54:42.535Z,6.00
2022-12-22T23:57:10.005Z,5.91
2022-12-22T23:59:37.865Z,5.75
